Aviation Digital Data Service (ADDS)

Output produced by METARs form (1922 UTC 18 June 2019)
found at http://www.aviationweather.gov/metar/data/
 
ESSA 181850Z 13007KT 9999 -SHRA FEW047CB BKN086 16/14 Q1014 TEMPO SHRA BKN040CB
TAF ESSA 181730Z 1818/1918 28006KT CAVOK 
     PROB40 1818/1904 SHRA BKN050CB
       
ESNX 181920Z AUTO 30011KT 9999 NCD 15/04 Q1007
TAF ESNX 181730Z 1818/1820 26012KT CAVOK 
     BECMG 1818/1820 32007KT
       
ESSD 181850Z AUTO 18011KT 9999 FEW020/// SCT150/// 18/14 Q1012
TAF ESSD 181130Z 1812/1815 22012KT 9999 SCT040 
     PROB40 1812/1815 SHRA BKN040CB
       
ESSB 181850Z 07002KT 9999 -RA FEW035CB OVC070 18/15 Q1015
TAF ESSB 181730Z 1818/1820 18004KT CAVOK 
     PROB40 1818/1820 SHRA BKN040CB
       
ESNG 181850Z 31009KT 9999 FEW021 BKN055 13/08 Q1005
TAF ESNG 181730Z 1818/1821 31007KT 9999 SCT025
       
ESMT 181850Z 18008KT CAVOK 22/15 Q1014
TAF ESMT 181706Z 1818/1821 17012KT 9999 FEW040
       
ESUT 181920Z AUTO 28004KT 9999 FEW076/// 13/05 Q1008
ESGJ 181850Z 18004KT CAVOK 19/17 Q1014
TAF AMD ESGJ 181903Z 1819/1901 20008KT CAVOK 
     PROB40 1819/1901 SHRA BKN045CB
       
ESPA 181850Z 32009KT CAVOK 21/10 Q1005
TAF ESPA 181730Z 1818/1823 27010KT CAVOK
       
ESMQ 181850Z 18011KT CAVOK 18/14 Q1016
TAF ESMQ 181730Z 1818/1822 18012KT CAVOK
       
ESIA 181850Z AUTO 00000KT 9999 FEW230/// 17/15 Q1014
TAF AMD ESIA 180940Z 1809/1814 21010G22KT CAVOK 
     TEMPO 1809/1814 5000 SHRA BKN030CB 
     TEMPO 1809/1814 
     PROB30 TSRA RMK MIL
       
ESOK 181850Z AUTO 17008KT 9999 FEW069/// 17/15 Q1012
TAF ESOK 181430Z 1815/1819 20008KT 9999 SCT020 
     PROB40 1817/1819 TSRA BKN040CB
       
ESNQ 181850Z AUTO 36008KT 9999 BKN009/// BKN012/// OVC015/// 09/07 Q1006
TAF ESNQ 181730Z 1818/1822 01004KT 9999 FEW006 BKN025 
     TEMPO 1818/1820 BKN008
       
ESNK 181850Z AUTO 21008KT 180V250 9999 FEW086/// 21/07 Q1008
TAF AMD ESNK 181512Z 1815/1819 26010G20KT 9999 SCT060TCU
       
ESMK 181850Z 13005KT CAVOK 18/15 Q1015
TAF ESMK 181706Z 1818/1820 12010KT 9999 FEW040
       
ESMX 181850Z AUTO 16007KT 9999 NCD 20/11 Q1016
TAF ESMX 181430Z 1815/1818 18010KT 9999 FEW045
       
ESSP 181850Z 00000KT CAVOK 19/16 Q1014
TAF ESSP 181730Z 1818/1821 01010KT CAVOK 
     BECMG 1818/1820 10005KT
       
ESGG 181850Z 20008KT 9999 VCSH SCT034CB 18/14 Q1013
TAF AMD ESGG 181901Z 1819/1918 22005KT CAVOK 
     PROB40 1819/1820 TSRA BKN050CB 
     PROB40 1822/1905 0700 BCFG 
     PROB40 1910/1918 TSRA SCT050CB
       
ESTL 181850Z AUTO 14006KT 9999 NCD 21/13 Q1014
TAF ESTL 181106Z 1812/1815 16010KT 9999 FEW040
       
ESNL 181920Z AUTO 21004KT 170V240 9999 FEW077/// 17/06 Q1007
ESCF 181850Z AUTO 17009KT 9999 SHRA BKN074/// 17/14 Q1014
TAF ESCF 181130Z 1812/1815 21010G14KT FEW050TCU 
     PROB40 1812/1815 23014G22KT 5000 SHRA BKN030 BKN050CB 
     PROB30 1812/1815 TS RMK MIL
       
ESKM 181850Z AUTO 18008KT 140V200 9999 FEW053/// BKN140/// OVC170/// 20/13 Q1010
ESOE 181850Z 12005KT CAVOK 17/15 Q1013
TAF ESOE 181730Z 1818/1824 17004KT CAVOK 
     PROB40 1818/1822 TSRA BKN040CB
       
ESNO 181850Z 20006KT CAVOK 19/09 Q1007
TAF ESNO 181730Z 1818/1822 27008KT CAVOK
       
ESUP 181850Z AUTO /////KT 9999 FEW008/// SCT012/// ///// Q//// RERA
ESDF 181850Z 15005KT CAVOK 18/14 Q1016
TAF ESDF 181730Z 1818/1822 18010KT CAVOK
       
ESSL 181850Z 21012KT 180V250 9999 RA FEW005 19/13 Q1014
TAF ESSL 181730Z 1818/1822 22008KT CAVOK 
     PROB40 1818/1821 SHRA BKN050CB
       
ESIB 181850Z AUTO 15001KT 9999 SCT180/// 18/17 Q1013
TAF ESIB 181130Z 1812/1815 21010G23KT CAVOK 
     TEMPO 1812/1815 5000 SHRA BKN025CB 
     PROB30 
     TEMPO 1812/1815 3000 TSRA RMK MIL
       
ESKN 181850Z 17005KT CAVOK 20/13 Q1014
TAF ESKN 181730Z 1818/1918 18008KT 9999 SCT040 
     PROB40 1823/1915 SHRA BKN040CB 
     TEMPO 1915/1918 TSRA BKN050CB
       
ESNS 181850Z 22006KT CAVOK 20/10 Q1006
TAF ESNS 181730Z 1818/1822 24008KT CAVOK 
     PROB40 1818/1820 SHRA BKN060CB
       
ESGR 181850Z AUTO 26002KT 4100 BR FEW098/// 18/17 Q1013 RERA
ESMS 181850Z 13009KT CAVOK 20/14 Q1015
TAF ESMS 181703Z 1818/1918 14008KT 9999 FEW040 
     TEMPO 1912/1918 14015G25KT
       
ESNN 181850Z 19006KT 9999 SHRA FEW046CB 21/09 Q1008
TAF ESNN 181730Z 1818/1821 23010KT CAVOK 
     TEMPO 1818/1821 SHRA SCT070CB
       
ESND 181850Z AUTO VRB03KT 9999 SCT043/// BKN130/// 17/10 Q1009
ESST 181850Z AUTO 20008KT 170V230 9999 SCT180/// 19/11 Q1011
ESGT 181850Z 22004KT 190V260 CAVOK 19/16 Q1013
TAF AMD ESGT 181901Z 1819/1821 22004KT CAVOK
       
ESNU 181850Z 14003KT CAVOK 17/12 Q1007
TAF ESNU 181730Z 1818/1903 20006KT CAVOK
       
ESCM 181850Z AUTO 17004KT 9999 NCD 16/15 Q1014 RERA
TAF ESCM 181125Z 1812/1814 25015G25KT CAVOK 
     TEMPO 1812/1814 5000 SHRA BKN030CB RMK MIL
       
ESOW 181850Z AUTO 00000KT 9999 FEW096/// BKN150/// 16/14 Q1014
ESPE 181850Z AUTO 31012KT 9999 NCD 18/07 Q1006
TAF COR ESPE 181130Z 1812/1816 25007KT CAVOK 
     TEMPO 1812/1816 7000 SHRA BKN040CB 
     PROB30 1812/1816 TS RMK MIL
       
ESNV 181850Z VRB02KT CAVOK 15/08 Q1008
ESSV 181850Z 19010KT CAVOK 19/11 Q1016
TAF ESSV 181730Z 1818/1822 20012KT CAVOK